Terminal Aerodrome Forecast
Issued by NWS

Home | Current Version | Previous Version | Text Only | Print | Product List | Glossary On
Versions: 1 2 3 4 5 6 7 8 9 10 11 12 13 14 15 16 17 18 19 20 21 22
000
FTUS46 KSGX 050520
TAFCRQ
TAF
KCRQ 050520Z 0506/0606 28005KT P6SM OVC018
     FM050700 VRB04KT P6SM BKN018
     FM051400 VRB04KT P6SM BKN022
     FM052000 28009KT P6SM SCT028
     FM060200 VRB04KT P6SM BKN025=

USA.gov is the U.S. government's official web portal to all federal, state and local government web resources and services.